Time;durP1;ratioP1;P1;durP2;ratioP2;P2;SDS_P1;SDS_P2;PMS_P1;PMS_P2;Temp;Humidity;BMP_temperature;BMP_pressure;BME280_temperature;BME280_humidity;BME280_pressure;Samples;Min_cycle;Max_cycle;Signal;HPM_P1;HPM_P2
2021/10/11 00:02:12;;;;;;;;;;;15.10;88.20;;;;;;4347728;32;43289;-81
2021/10/11 00:04:39;;;;;;;;;;;15.20;88.30;;;;;;4361518;32;46248;-81
2021/10/11 00:07:08;;;;;;;;;;;15.10;88.40;;;;;;4347417;32;43245;-81
2021/10/11 00:09:41;;;;;;;;;;;15.10;88.50;;;;;;4361404;32;45713;-81
2021/10/11 00:12:09;;;;;;;;;;;15.20;88.70;;;;;;4348246;32;44172;-80
2021/10/11 00:14:39;;;;;;;;;;;15.10;88.70;;;;;;4347644;32;43061;-81
2021/10/11 00:17:06;;;;;;;;;;;15.10;88.70;;;;;;4347896;32;44234;-80
2021/10/11 00:19:35;;;;;;;;;;;15.10;88.80;;;;;;4360580;32;42995;-81
2021/10/11 00:22:08;;;;;;;;;;;15.10;89.00;;;;;;4348394;32;20408;-81
2021/10/11 00:24:36;;;;;;;;;;;15.10;89.00;;;;;;4347859;32;44008;-81
2021/10/11 00:27:08;;;;;;;;;;;15.10;89.10;;;;;;4347352;32;44291;-81
2021/10/11 00:29:36;;;;;;;;;;;15.10;89.30;;;;;;4347668;32;44953;-81
2021/10/11 00:32:08;;;;;;;;;;;15.10;89.30;;;;;;4347672;32;43273;-81
2021/10/11 00:34:35;;;;;;;;;;;15.10;89.40;;;;;;4360479;32;42871;-81
2021/10/11 00:37:06;;;;;;;;;;;15.10;89.50;;;;;;4347061;32;43398;-81
2021/10/11 00:39:33;;;;;;;;;;;15.10;89.60;;;;;;4347407;32;43710;-80
2021/10/11 00:42:03;;;;;;;;;;;15.10;89.60;;;;;;4347725;32;43940;-81
2021/10/11 00:44:30;;;;;;;;;;;15.10;89.70;;;;;;4347499;32;44508;-81
2021/10/11 00:46:57;;;;;;;;;;;15.10;89.80;;;;;;4346992;32;43036;-81
2021/10/11 00:49:27;;;;;;;;;;;15.10;90.00;;;;;;4360339;32;44750;-81
2021/10/11 00:51:58;;;;;;;;;;;15.10;90.00;;;;;;4360385;32;44430;-80
2021/10/11 00:54:26;;;;;;;;;;;15.10;90.00;;;;;;4347422;32;43705;-81
2021/10/11 00:56:53;;;;;;;;;;;15.10;90.10;;;;;;4347322;32;43193;-81
2021/10/11 00:59:23;;;;;;;;;;;15.10;90.10;;;;;;4360560;32;44183;-81
2021/10/11 01:01:50;;;;;;;;;;;15.10;90.20;;;;;;4359886;32;43964;-81
2021/10/11 01:04:19;;;;;;;;;;;15.10;90.20;;;;;;4347267;32;43023;-81
2021/10/11 01:06:53;;;;;;;;;;;15.10;90.30;;;;;;4360356;32;43185;-81
2021/10/11 01:09:25;;;;;;;;;;;15.10;90.40;;;;;;4347210;32;43398;-81
2021/10/11 01:11:54;;;;;;;;;;;15.00;90.40;;;;;;4360242;32;42066;-81
2021/10/11 01:14:22;;;;;;;;;;;15.10;90.50;;;;;;4346561;32;44322;-81
2021/10/11 01:16:52;;;;;;;;;;;15.10;90.90;;;;;;4346776;32;44137;-81
2021/10/11 01:19:22;;;;;;;;;;;15.10;90.60;;;;;;4359850;32;43504;-81
2021/10/11 01:21:52;;;;;;;;;;;15.10;90.70;;;;;;4360356;32;42965;-81
2021/10/11 01:24:24;;;;;;;;;;;15.10;90.70;;;;;;4360396;32;43266;-82
2021/10/11 01:26:54;;;;;;;;;;;15.00;90.80;;;;;;4346852;32;43430;-81
2021/10/11 01:29:22;;;;;;;;;;;15.10;90.90;;;;;;4360468;32;43315;-81
2021/10/11 01:31:52;;;;;;;;;;;15.00;90.90;;;;;;4359485;32;43924;-81
2021/10/11 01:34:24;;;;;;;;;;;15.00;91.00;;;;;;4360205;32;44141;-81
2021/10/11 01:36:54;;;;;;;;;;;15.00;91.00;;;;;;4360211;32;43271;-82
2021/10/11 01:39:23;;;;;;;;;;;15.00;91.10;;;;;;4360169;32;44304;-81
2021/10/11 01:41:55;;;;;;;;;;;15.00;91.10;;;;;;4346759;32;43212;-81
2021/10/11 01:44:26;;;;;;;;;;;15.00;91.20;;;;;;4346379;32;43443;-81
2021/10/11 01:46:58;;;;;;;;;;;15.00;91.30;;;;;;4360112;32;43211;-81
2021/10/11 01:49:25;;;;;;;;;;;15.10;91.40;;;;;;4346614;33;44423;-81
2021/10/11 01:51:53;;;;;;;;;;;15.00;91.40;;;;;;4346937;33;43817;-81
2021/10/11 01:54:20;;;;;;;;;;;15.00;91.40;;;;;;4346900;33;44784;-81
2021/10/11 01:56:47;;;;;;;;;;;15.00;91.50;;;;;;4360061;33;43470;-82
2021/10/11 01:59:20;;;;;;;;;;;15.00;91.50;;;;;;4346984;33;43813;-81
2021/10/11 02:01:49;;;;;;;;;;;15.00;91.60;;;;;;4359775;33;43254;-82
2021/10/11 02:04:19;;;;;;;;;;;15.00;91.60;;;;;;4346216;33;43489;-81
2021/10/11 02:06:49;;;;;;;;;;;15.00;91.70;;;;;;4359886;33;43491;-81
2021/10/11 02:09:19;;;;;;;;;;;15.00;91.70;;;;;;4360147;33;43898;-81
2021/10/11 02:11:54;;;;;;;;;;;15.00;92.10;;;;;;4347059;33;44215;-82
2021/10/11 02:14:21;;;;;;;;;;;15.00;91.80;;;;;;4346673;33;43537;-82
2021/10/11 02:16:51;;;;;;;;;;;15.00;91.90;;;;;;4359601;33;44255;-82
2021/10/11 02:19:21;;;;;;;;;;;15.00;92.00;;;;;;4359860;33;44839;-82
2021/10/11 02:21:55;;;;;;;;;;;15.00;92.00;;;;;;4359837;33;44304;-81
2021/10/11 02:24:23;;;;;;;;;;;15.00;92.10;;;;;;4360531;33;20381;-82
2021/10/11 02:26:53;;;;;;;;;;;15.00;92.10;;;;;;4346345;33;42681;-82
2021/10/11 02:29:25;;;;;;;;;;;15.00;92.10;;;;;;4346130;33;43490;-82
2021/10/11 02:31:52;;;;;;;;;;;15.00;92.20;;;;;;4346018;33;43830;-82
2021/10/11 02:34:26;;;;;;;;;;;15.00;92.20;;;;;;4346283;33;43058;-82
2021/10/11 02:36:53;;;;;;;;;;;15.00;92.20;;;;;;4360003;33;43919;-82
2021/10/11 02:39:22;;;;;;;;;;;15.00;92.30;;;;;;4345958;33;42655;-82
2021/10/11 02:41:52;;;;;;;;;;;15.00;92.30;;;;;;4346294;33;44180;-82
2021/10/11 02:44:19;;;;;;;;;;;15.00;92.40;;;;;;4361966;32;45878;-82
2021/10/11 02:46:51;;;;;;;;;;;15.00;92.40;;;;;;4349119;32;43467;-82
2021/10/11 02:49:24;;;;;;;;;;;15.00;92.40;;;;;;4362066;32;43786;-82
2021/10/11 02:51:54;;;;;;;;;;;15.00;92.40;;;;;;4362089;32;43311;-82
2021/10/11 02:54:24;;;;;;;;;;;15.00;92.40;;;;;;4348494;32;44640;-81
2021/10/11 02:56:51;;;;;;;;;;;15.00;92.50;;;;;;4348610;32;44911;-82
2021/10/11 02:59:18;;;;;;;;;;;15.00;92.50;;;;;;4348692;32;42760;-82
2021/10/11 03:01:46;;;;;;;;;;;15.00;92.60;;;;;;4348678;32;45834;-81
2021/10/11 03:04:13;;;;;;;;;;;15.00;92.60;;;;;;4362162;32;44114;-82
2021/10/11 03:06:46;;;;;;;;;;;15.00;92.60;;;;;;4362129;32;43572;-82
2021/10/11 03:09:15;;;;;;;;;;;15.00;92.70;;;;;;4348924;32;44151;-82
2021/10/11 03:11:51;;;;;;;;;;;15.00;92.70;;;;;;4349092;32;45500;-82
2021/10/11 03:14:18;;;;;;;;;;;15.00;92.70;;;;;;4362213;32;43527;-82
2021/10/11 03:16:50;;;;;;;;;;;15.00;92.70;;;;;;4349102;32;44251;-81
2021/10/11 03:19:23;;;;;;;;;;;15.00;92.80;;;;;;4348628;32;43855;-81
2021/10/11 03:21:55;;;;;;;;;;;15.00;92.80;;;;;;4362122;32;45368;-82
2021/10/11 03:24:23;;;;;;;;;;;14.90;92.80;;;;;;4348829;32;44194;-82
2021/10/11 03:26:50;;;;;;;;;;;15.00;92.90;;;;;;4348040;32;43514;-82
2021/10/11 03:29:20;;;;;;;;;;;15.00;92.90;;;;;;4348241;32;42792;-82
2021/10/11 03:31:48;;;;;;;;;;;15.00;92.90;;;;;;4361818;32;43317;-82
2021/10/11 03:34:20;;;;;;;;;;;15.00;92.90;;;;;;4361418;32;44043;-82
2021/10/11 03:36:53;;;;;;;;;;;15.00;93.00;;;;;;4361368;32;42971;-82
2021/10/11 03:39:26;;;;;;;;;;;15.00;93.00;;;;;;4361275;32;43868;-82
2021/10/11 03:41:53;;;;;;;;;;;14.90;93.00;;;;;;4361573;32;43284;-82
2021/10/11 03:44:23;;;;;;;;;;;15.00;93.10;;;;;;4361631;32;43581;-81
2021/10/11 03:46:50;;;;;;;;;;;15.00;93.10;;;;;;4361188;32;44439;-81
2021/10/11 03:49:23;;;;;;;;;;;15.00;93.10;;;;;;4361330;32;43484;-81
2021/10/11 03:51:50;;;;;;;;;;;15.00;93.10;;;;;;4361474;32;44161;-81
2021/10/11 03:54:17;;;;;;;;;;;15.00;93.10;;;;;;4360746;32;43235;-82
2021/10/11 03:56:44;;;;;;;;;;;15.00;93.10;;;;;;4361780;32;20373;-81
2021/10/11 03:59:12;;;;;;;;;;;15.00;93.10;;;;;;4360974;32;43920;-81
2021/10/11 04:01:47;;;;;;;;;;;15.00;93.20;;;;;;4360903;32;43096;-82
2021/10/11 04:04:17;;;;;;;;;;;15.00;93.20;;;;;;4348239;32;43891;-82
2021/10/11 04:06:53;;;;;;;;;;;15.00;93.20;;;;;;4348234;32;45123;-82
2021/10/11 04:09:26;;;;;;;;;;;14.90;93.20;;;;;;4361416;32;43281;-82
2021/10/11 04:12:05;;;;;;;;;;;14.90;93.20;;;;;;4348007;32;43922;-82
2021/10/11 04:14:35;;;;;;;;;;;14.90;93.30;;;;;;4348119;32;44179;-82
2021/10/11 04:17:05;;;;;;;;;;;14.90;93.30;;;;;;4347829;32;43350;-82
2021/10/11 04:19:32;;;;;;;;;;;14.90;93.30;;;;;;4347907;32;43192;-82
2021/10/11 04:21:59;;;;;;;;;;;14.90;93.30;;;;;;4347812;32;43379;-82
2021/10/11 04:24:32;;;;;;;;;;;14.90;93.40;;;;;;4360758;32;44933;-82
2021/10/11 04:26:59;;;;;;;;;;;14.90;93.40;;;;;;4361829;32;19994;-82
2021/10/11 04:29:29;;;;;;;;;;;14.90;93.40;;;;;;4347544;32;43455;-82
2021/10/11 04:31:58;;;;;;;;;;;14.90;93.40;;;;;;4360947;32;43279;-82
2021/10/11 04:34:28;;;;;;;;;;;14.90;93.40;;;;;;4347548;32;42695;-82
2021/10/11 04:36:55;;;;;;;;;;;14.90;93.50;;;;;;4360395;32;44036;-82
2021/10/11 04:39:26;;;;;;;;;;;14.90;93.40;;;;;;4360613;32;45769;-82
2021/10/11 04:41:53;;;;;;;;;;;14.90;93.40;;;;;;4360471;32;42912;-82
2021/10/11 04:44:20;;;;;;;;;;;14.90;93.50;;;;;;4360843;32;43521;-82
2021/10/11 04:46:47;;;;;;;;;;;14.90;93.50;;;;;;4360701;32;44223;-82
2021/10/11 04:49:17;;;;;;;;;;;14.90;93.50;;;;;;4347317;32;43560;-82
2021/10/11 04:51:44;;;;;;;;;;;14.90;93.50;;;;;;4360757;32;45191;-81
2021/10/11 04:54:14;;;;;;;;;;;14.80;93.50;;;;;;4360559;32;42124;-83
2021/10/11 04:56:47;;;;;;;;;;;14.90;93.60;;;;;;4347886;32;43901;-82
2021/10/11 04:59:14;;;;;;;;;;;14.80;93.60;;;;;;4360534;32;42783;-82
2021/10/11 05:01:41;;;;;;;;;;;14.80;93.60;;;;;;4360258;32;43463;-82
2021/10/11 05:04:09;;;;;;;;;;;14.80;93.60;;;;;;4360666;32;44040;-82
2021/10/11 05:06:40;;;;;;;;;;;14.80;93.60;;;;;;4346701;32;43536;-82
2021/10/11 05:09:07;;;;;;;;;;;14.80;93.60;;;;;;4360204;32;42620;-82
2021/10/11 05:11:34;;;;;;;;;;;14.80;93.60;;;;;;4360519;32;46075;-82
2021/10/11 05:14:04;;;;;;;;;;;14.80;93.70;;;;;;4347370;32;44486;-81
2021/10/11 05:16:35;;;;;;;;;;;14.80;93.70;;;;;;4360500;32;43301;-81
2021/10/11 05:19:02;;;;;;;;;;;14.80;93.70;;;;;;4346763;32;42579;-81
2021/10/11 05:21:31;;;;;;;;;;;14.80;93.70;;;;;;4360138;32;43361;-82
2021/10/11 05:23:58;;;;;;;;;;;14.80;93.70;;;;;;4360205;32;44261;-82
2021/10/11 05:26:29;;;;;;;;;;;14.80;93.70;;;;;;4359921;32;43807;-81
2021/10/11 05:28:59;;;;;;;;;;;14.70;93.70;;;;;;4361180;32;20331;-82
2021/10/11 05:31:28;;;;;;;;;;;14.80;93.70;;;;;;4360206;32;45570;-81
2021/10/11 05:33:59;;;;;;;;;;;14.80;93.70;;;;;;4346512;32;43987;-81
2021/10/11 05:36:28;;;;;;;;;;;14.80;93.70;;;;;;4359878;32;43284;-82
2021/10/11 05:39:01;;;;;;;;;;;14.70;93.70;;;;;;4346829;32;43738;-82
2021/10/11 05:41:28;;;;;;;;;;;14.70;93.70;;;;;;4360201;32;43828;-81
2021/10/11 05:43:58;;;;;;;;;;;14.80;93.70;;;;;;4346733;32;43297;-81
2021/10/11 05:46:25;;;;;;;;;;;14.70;93.70;;;;;;4359731;32;42898;-81
2021/10/11 05:49:12;;;;;;;;;;;14.70;93.70;;;;;;4360031;32;44300;-82
2021/10/11 05:51:39;;;;;;;;;;;14.70;93.70;;;;;;4346627;33;44228;-82
2021/10/11 05:54:06;;;;;;;;;;;14.70;93.70;;;;;;4346680;33;44529;-82
2021/10/11 05:56:33;;;;;;;;;;;14.70;93.70;;;;;;4346341;33;44083;-82
2021/10/11 05:59:02;;;;;;;;;;;14.70;93.70;;;;;;4360327;33;20008;-82
2021/10/11 06:01:29;;;;;;;;;;;14.70;93.70;;;;;;4346081;33;42790;-81
2021/10/11 06:03:56;;;;;;;;;;;14.70;93.70;;;;;;4359641;33;42364;-81
2021/10/11 06:06:23;;;;;;;;;;;14.70;93.70;;;;;;4359641;33;42845;-81
2021/10/11 06:08:59;;;;;;;;;;;14.70;93.70;;;;;;4359930;33;43015;-82
2021/10/11 06:11:40;;;;;;;;;;;14.70;93.70;;;;;;4346356;33;42730;-81
2021/10/11 06:14:07;;;;;;;;;;;14.70;93.70;;;;;;4346729;33;44061;-82
2021/10/11 06:16:34;;;;;;;;;;;14.70;93.70;;;;;;4359455;33;43741;-82
2021/10/11 06:19:04;;;;;;;;;;;14.70;93.70;;;;;;4362474;32;43775;-82
2021/10/11 06:21:35;;;;;;;;;;;14.70;93.70;;;;;;4362497;32;43799;-82
2021/10/11 06:24:03;;;;;;;;;;;14.70;93.70;;;;;;4349323;32;42737;-82
2021/10/11 06:26:33;;;;;;;;;;;14.70;93.70;;;;;;4349235;32;43549;-82
2021/10/11 06:29:08;;;;;;;;;;;14.60;93.60;;;;;;4350110;32;19992;-82
2021/10/11 06:31:44;;;;;;;;;;;14.70;93.60;;;;;;4349397;32;43470;-82
2021/10/11 06:34:13;;;;;;;;;;;14.70;93.60;;;;;;4362441;32;42307;-82
2021/10/11 06:36:46;;;;;;;;;;;14.60;93.60;;;;;;4349066;32;43494;-82
2021/10/11 06:39:15;;;;;;;;;;;14.60;93.50;;;;;;4349507;32;42760;-82
2021/10/11 06:41:48;;;;;;;;;;;14.60;93.50;;;;;;4362507;32;44342;-82
2021/10/11 06:44:18;;;;;;;;;;;14.60;93.50;;;;;;4349563;32;43475;-82
2021/10/11 06:46:51;;;;;;;;;;;14.60;93.50;;;;;;4348786;32;44756;-82
2021/10/11 06:49:20;;;;;;;;;;;14.60;93.50;;;;;;4349162;32;43466;-82
2021/10/11 06:51:51;;;;;;;;;;;14.60;93.60;;;;;;4362053;32;42253;-82
2021/10/11 06:54:21;;;;;;;;;;;14.60;93.50;;;;;;4348981;32;42822;-82
2021/10/11 06:56:48;;;;;;;;;;;14.60;93.50;;;;;;4362312;32;42727;-81
2021/10/11 06:59:17;;;;;;;;;;;14.60;93.60;;;;;;4362677;32;20052;-82
2021/10/11 07:01:46;;;;;;;;;;;14.50;93.50;;;;;;4361947;32;43862;-82
2021/10/11 07:04:36;;;;;;;;;;;14.50;93.50;;;;;;4362097;32;42556;-81
2021/10/11 07:07:06;;;;;;;;;;;14.50;93.50;;;;;;4349072;32;44239;-82
2021/10/11 07:09:39;;;;;;;;;;;14.50;93.50;;;;;;4348579;32;42595;-82
2021/10/11 07:12:12;;;;;;;;;;;14.50;93.50;;;;;;4362150;32;44617;-82
2021/10/11 07:14:40;;;;;;;;;;;14.50;93.50;;;;;;4348355;32;42575;-81
2021/10/11 07:17:10;;;;;;;;;;;14.50;93.50;;;;;;4361907;32;43891;-82
2021/10/11 07:19:45;;;;;;;;;;;14.50;93.60;;;;;;4348673;32;42200;-82
2021/10/11 07:22:16;;;;;;;;;;;14.50;93.60;;;;;;4361613;32;43044;-82
2021/10/11 07:24:47;;;;;;;;;;;14.50;93.60;;;;;;4348376;32;43259;-82
2021/10/11 07:27:17;;;;;;;;;;;14.50;93.60;;;;;;4348758;32;44039;-82
2021/10/11 07:29:47;;;;;;;;;;;14.50;93.60;;;;;;4348931;32;20011;-81
2021/10/11 07:32:15;;;;;;;;;;;14.50;93.60;;;;;;4348638;32;44208;-82
2021/10/11 07:34:45;;;;;;;;;;;14.40;93.60;;;;;;4348178;32;43479;-82
2021/10/11 07:37:14;;;;;;;;;;;14.50;93.70;;;;;;4348014;32;43199;-82
2021/10/11 07:39:44;;;;;;;;;;;14.50;93.70;;;;;;4361658;32;43690;-81
2021/10/11 07:42:11;;;;;;;;;;;14.40;93.70;;;;;;4348142;32;42860;-82
2021/10/11 07:44:43;;;;;;;;;;;14.40;93.70;;;;;;4347842;32;44638;-81
2021/10/11 07:47:11;;;;;;;;;;;14.40;93.70;;;;;;4361328;32;45176;-82
2021/10/11 07:49:43;;;;;;;;;;;14.40;93.70;;;;;;4361072;32;44271;-82
2021/10/11 07:52:11;;;;;;;;;;;14.40;93.70;;;;;;4361198;32;42671;-82
2021/10/11 07:54:38;;;;;;;;;;;14.40;93.70;;;;;;4361326;32;44863;-81
2021/10/11 07:57:08;;;;;;;;;;;14.40;93.80;;;;;;4361634;32;44188;-82
2021/10/11 07:59:37;;;;;;;;;;;14.40;93.80;;;;;;4361467;32;44263;-81
2021/10/11 08:02:08;;;;;;;;;;;14.40;93.80;;;;;;4361012;32;45241;-81
2021/10/11 08:04:41;;;;;;;;;;;14.40;93.80;;;;;;4361177;32;43246;-81
2021/10/11 08:07:11;;;;;;;;;;;14.30;93.80;;;;;;4347575;32;43428;-81
2021/10/11 08:09:38;;;;;;;;;;;14.30;93.80;;;;;;4361171;32;44237;-82
2021/10/11 08:12:09;;;;;;;;;;;14.30;93.80;;;;;;4348073;32;42905;-81
2021/10/11 08:14:39;;;;;;;;;;;14.30;93.80;;;;;;4360764;32;43239;-81
2021/10/11 08:17:06;;;;;;;;;;;14.30;93.90;;;;;;4348179;32;43372;-81
2021/10/11 08:19:33;;;;;;;;;;;14.30;93.90;;;;;;4361252;32;45192;-81
2021/10/11 08:22:00;;;;;;;;;;;14.30;93.90;;;;;;4347952;32;44127;-81
2021/10/11 08:24:38;;;;;;;;;;;14.40;93.90;;;;;;4347799;32;43884;-81
2021/10/11 08:27:16;;;;;;;;;;;14.30;93.90;;;;;;4361044;32;44164;-81
2021/10/11 08:29:44;;;;;;;;;;;14.40;93.90;;;;;;4347725;32;43564;-81
2021/10/11 08:32:17;;;;;;;;;;;14.40;94.00;;;;;;4348495;32;20349;-79
2021/10/11 08:34:44;;;;;;;;;;;14.40;94.00;;;;;;4360998;32;42693;-80
2021/10/11 08:37:11;;;;;;;;;;;14.30;93.90;;;;;;4347460;32;43468;-80
2021/10/11 08:39:44;;;;;;;;;;;14.30;94.00;;;;;;4347539;32;43364;-80
2021/10/11 08:42:14;;;;;;;;;;;14.40;94.00;;;;;;4347409;32;44090;-80
2021/10/11 08:44:44;;;;;;;;;;;14.30;94.00;;;;;;4347539;32;43599;-80
2021/10/11 08:47:19;;;;;;;;;;;14.30;94.00;;;;;;4360870;32;44244;-80
2021/10/11 08:49:51;;;;;;;;;;;14.30;94.00;;;;;;4347108;32;42538;-80
2021/10/11 08:52:25;;;;;;;;;;;14.30;94.00;;;;;;4360447;32;45268;-80
2021/10/11 08:54:53;;;;;;;;;;;14.40;94.00;;;;;;4347606;32;43064;-81
2021/10/11 08:57:28;;;;;;;;;;;14.40;94.00;;;;;;4360194;32;42859;-81
2021/10/11 09:00:09;;;;;;;;;;;14.40;94.00;;;;;;4360709;32;44049;-82
2021/10/11 09:02:43;;;;;;;;;;;14.40;94.00;;;;;;4361095;32;20005;-81
2021/10/11 09:05:22;;;;;;;;;;;14.40;94.00;;;;;;4360805;32;43711;-81
2021/10/11 09:08:02;;;;;;;;;;;14.40;94.00;;;;;;4360602;32;43913;-81
2021/10/11 09:10:35;;;;;;;;;;;14.40;94.00;;;;;;4347218;32;43595;-81
2021/10/11 09:13:11;;;;;;;;;;;14.40;94.00;;;;;;4360088;32;43489;-82
2021/10/11 09:15:42;;;;;;;;;;;14.40;94.00;;;;;;4360047;32;43675;-81
2021/10/11 09:18:11;;;;;;;;;;;14.40;94.00;;;;;;4346921;32;43242;-81
2021/10/11 09:20:40;;;;;;;;;;;14.40;94.00;;;;;;4360334;32;43494;-81
2021/10/11 09:23:08;;;;;;;;;;;14.40;94.00;;;;;;4359815;32;44078;-81
2021/10/11 09:25:40;;;;;;;;;;;14.40;94.00;;;;;;4346665;32;42958;-81
2021/10/11 09:28:16;;;;;;;;;;;14.40;94.00;;;;;;4360332;32;44131;-82
2021/10/11 09:31:08;;;;;;;;;;;14.40;94.00;;;;;;4360275;32;44943;-82
2021/10/11 09:33:38;;;;;;;;;;;14.40;94.00;;;;;;4361191;32;19997;-81
2021/10/11 09:36:08;;;;;;;;;;;14.40;94.00;;;;;;4360418;32;43189;-81
2021/10/11 09:38:35;;;;;;;;;;;14.40;94.00;;;;;;4359686;32;43632;-81
2021/10/11 09:41:08;;;;;;;;;;;14.40;94.00;;;;;;4359969;32;44173;-81
2021/10/11 09:43:36;;;;;;;;;;;14.40;94.00;;;;;;4360178;32;42884;-81
2021/10/11 09:46:10;;;;;;;;;;;14.40;94.00;;;;;;4360229;32;43071;-81
2021/10/11 09:48:50;;;;;;;;;;;14.40;94.00;;;;;;4359739;32;43209;-81
2021/10/11 09:51:22;;;;;;;;;;;14.40;94.00;;;;;;4346550;32;43981;-82
2021/10/11 09:53:53;;;;;;;;;;;14.40;94.00;;;;;;4359302;32;42204;-81
2021/10/11 09:56:26;;;;;;;;;;;14.40;94.00;;;;;;4360141;33;43201;-82
2021/10/11 09:58:59;;;;;;;;;;;14.40;94.00;;;;;;4360155;33;44669;-82
2021/10/11 10:01:26;;;;;;;;;;;14.40;93.90;;;;;;4360015;33;44261;-82
2021/10/11 10:03:59;;;;;;;;;;;14.30;94.20;;;;;;4361098;33;20009;-81
2021/10/11 10:06:30;;;;;;;;;;;14.40;93.90;;;;;;4346815;33;43718;-81
2021/10/11 10:09:09;;;;;;;;;;;14.40;93.90;;;;;;4359941;33;42737;-81
2021/10/11 10:11:38;;;;;;;;;;;14.30;93.90;;;;;;4346545;33;44285;-81
2021/10/11 10:14:20;;;;;;;;;;;14.40;93.80;;;;;;4359729;33;42857;-81
2021/10/11 10:16:50;;;;;;;;;;;14.30;93.80;;;;;;4359840;33;42838;-81
2021/10/11 10:19:17;;;;;;;;;;;14.30;93.80;;;;;;4359966;33;42435;-81
2021/10/11 10:21:50;;;;;;;;;;;14.40;93.80;;;;;;4359855;33;43263;-82
2021/10/11 10:24:24;;;;;;;;;;;14.30;93.80;;;;;;4359683;33;43409;-81
2021/10/11 10:27:21;;;;;;;;;;;14.40;93.80;;;;;;4359418;33;43676;-81
2021/10/11 10:29:54;;;;;;;;;;;14.40;93.80;;;;;;4345605;33;43591;-82
2021/10/11 10:32:27;;;;;;;;;;;14.40;93.80;;;;;;4346236;33;42886;-81
2021/10/11 10:35:03;;;;;;;;;;;14.40;93.80;;;;;;4346037;33;42016;-81
2021/10/11 10:37:33;;;;;;;;;;;14.30;93.80;;;;;;4359522;33;42588;-81
2021/10/11 10:40:06;;;;;;;;;;;14.30;93.80;;;;;;4359504;33;42833;-81
2021/10/11 10:42:34;;;;;;;;;;;14.30;93.80;;;;;;4359791;33;43900;-81
2021/10/11 10:45:03;;;;;;;;;;;14.30;93.80;;;;;;4359269;33;43880;-81
2021/10/11 10:47:37;;;;;;;;;;;14.40;93.80;;;;;;4346047;33;44052;-81
2021/10/11 10:50:13;;;;;;;;;;;14.30;93.80;;;;;;4346487;33;43966;-81
2021/10/11 10:52:54;;;;;;;;;;;14.40;93.80;;;;;;4359185;33;44967;-81
2021/10/11 10:55:27;;;;;;;;;;;14.40;93.80;;;;;;4359802;33;44294;-81
2021/10/11 10:58:01;;;;;;;;;;;14.40;93.80;;;;;;4346556;33;43900;-81
2021/10/11 11:00:28;;;;;;;;;;;14.40;93.90;;;;;;4346709;33;43132;-81
2021/10/11 11:02:59;;;;;;;;;;;14.40;93.90;;;;;;4359274;33;43741;-81
2021/10/11 11:05:27;;;;;;;;;;;14.40;93.80;;;;;;4361927;32;20031;-81
2021/10/11 11:07:55;;;;;;;;;;;14.40;93.80;;;;;;4361864;32;43517;-80
2021/10/11 11:10:29;;;;;;;;;;;14.40;93.80;;;;;;4349082;32;45630;-81
2021/10/11 11:13:04;;;;;;;;;;;14.40;93.70;;;;;;4362121;32;44717;-81
2021/10/11 11:15:32;;;;;;;;;;;14.40;93.70;;;;;;4348498;32;42831;-81
2021/10/11 11:18:02;;;;;;;;;;;14.40;93.70;;;;;;4348386;32;42936;-81
2021/10/11 11:20:32;;;;;;;;;;;14.40;93.70;;;;;;4362320;32;43769;-81
2021/10/11 11:23:04;;;;;;;;;;;14.40;93.60;;;;;;4361715;32;43006;-81
2021/10/11 11:25:37;;;;;;;;;;;14.40;93.60;;;;;;4361619;32;43947;-81
2021/10/11 11:28:08;;;;;;;;;;;14.40;93.60;;;;;;4362072;32;43685;-81
2021/10/11 11:30:38;;;;;;;;;;;14.40;93.50;;;;;;4361334;32;44793;-81
2021/10/11 11:33:07;;;;;;;;;;;14.40;93.50;;;;;;4348282;32;42986;-80
2021/10/11 11:35:37;;;;;;;;;;;14.40;93.50;;;;;;4362665;32;20060;-81
2021/10/11 11:38:06;;;;;;;;;;;14.40;93.50;;;;;;4348277;32;43737;-81
2021/10/11 11:40:34;;;;;;;;;;;14.40;93.50;;;;;;4361320;32;42999;-81
2021/10/11 11:43:03;;;;;;;;;;;14.40;93.50;;;;;;4361364;32;42907;-81
2021/10/11 11:45:50;;;;;;;;;;;14.40;93.60;;;;;;4361410;32;42805;-81
2021/10/11 11:48:34;;;;;;;;;;;14.40;93.50;;;;;;4348498;32;43215;-81
2021/10/11 11:51:07;;;;;;;;;;;14.40;93.50;;;;;;4361730;32;43130;-81
2021/10/11 11:53:36;;;;;;;;;;;14.40;93.50;;;;;;4361200;32;42895;-81
2021/10/11 11:56:05;;;;;;;;;;;14.50;93.50;;;;;;4347893;32;42595;-81
2021/10/11 11:58:37;;;;;;;;;;;14.50;93.60;;;;;;4361560;32;46050;-81
2021/10/11 12:01:12;;;;;;;;;;;14.50;93.50;;;;;;4361046;32;43284;-81
2021/10/11 12:03:53;;;;;;;;;;;14.50;93.50;;;;;;4348276;32;43632;-80
2021/10/11 12:06:25;;;;;;;;;;;14.50;93.50;;;;;;4349042;32;20402;-81
2021/10/11 12:08:55;;;;;;;;;;;14.50;93.50;;;;;;4347849;32;43606;-81
2021/10/11 12:11:31;;;;;;;;;;;14.50;93.50;;;;;;4348458;32;43188;-81
2021/10/11 12:14:02;;;;;;;;;;;14.50;93.50;;;;;;4348352;32;44319;-80
2021/10/11 12:16:31;;;;;;;;;;;14.50;93.50;;;;;;4347577;32;43972;-81
2021/10/11 12:19:05;;;;;;;;;;;14.50;93.50;;;;;;4361290;32;43050;-81
2021/10/11 12:21:33;;;;;;;;;;;14.60;93.60;;;;;;4347908;32;44881;-81
2021/10/11 12:24:02;;;;;;;;;;;14.50;93.50;;;;;;4347800;32;42675;-81
2021/10/11 12:27:04;;;;;;;;;;;14.60;93.50;;;;;;4361219;32;44797;-81
2021/10/11 12:29:35;;;;;;;;;;;14.60;93.50;;;;;;4359112;32;43054;-81
2021/10/11 12:32:09;;;;;;;;;;;14.60;93.60;;;;;;4360885;32;42192;-81
2021/10/11 12:34:41;;;;;;;;;;;14.60;93.50;;;;;;4347227;32;42765;-81
2021/10/11 12:37:13;;;;;;;;;;;14.60;93.60;;;;;;4347867;32;42989;-80
2021/10/11 12:39:44;;;;;;;;;;;14.60;93.50;;;;;;4361017;32;43627;-81
2021/10/11 12:42:18;;;;;;;;;;;14.70;93.60;;;;;;4360958;32;44581;-81
2021/10/11 12:44:53;;;;;;;;;;;14.70;93.50;;;;;;4360965;32;43223;-81
2021/10/11 12:47:31;;;;;;;;;;;14.70;93.50;;;;;;4347378;32;42834;-81
2021/10/11 12:50:02;;;;;;;;;;;14.70;93.50;;;;;;4360261;32;43537;-81
2021/10/11 12:52:39;;;;;;;;;;;14.70;93.50;;;;;;4360912;32;44210;-81
2021/10/11 12:55:17;;;;;;;;;;;14.70;93.50;;;;;;4360940;32;43431;-81
2021/10/11 12:57:51;;;;;;;;;;;14.70;93.50;;;;;;4360365;32;43790;-81
2021/10/11 13:00:21;;;;;;;;;;;14.70;93.50;;;;;;4360693;32;44510;-81
2021/10/11 13:02:51;;;;;;;;;;;14.80;93.50;;;;;;4344446;33;43717;-81
2021/10/11 13:05:24;;;;;;;;;;;14.80;93.50;;;;;;4345337;33;42819;-81
2021/10/11 13:07:51;;;;;;;;;;;14.80;93.50;;;;;;4344917;33;45664;-81
2021/10/11 13:10:18;;;;;;;;;;;14.70;93.40;;;;;;4345594;33;43198;-81
2021/10/11 13:12:48;;;;;;;;;;;14.80;93.40;;;;;;4345607;33;42983;-81
2021/10/11 13:15:20;;;;;;;;;;;14.80;93.40;;;;;;4345152;32;44881;-81
2021/10/11 13:18:04;;;;;;;;;;;14.80;93.40;;;;;;4345196;33;42695;-80
2021/10/11 13:20:37;;;;;;;;;;;14.80;93.40;;;;;;4345215;33;43604;-81
2021/10/11 13:23:07;;;;;;;;;;;14.80;93.40;;;;;;4345677;33;43477;-81
2021/10/11 13:25:35;;;;;;;;;;;14.80;93.40;;;;;;4345537;33;44200;-81
2021/10/11 13:28:07;;;;;;;;;;;14.80;93.40;;;;;;4344604;33;42465;-81
2021/10/11 13:34:04;;;;;;;;;;;14.80;93.40;;;;;;4345081;33;43403;-81
2021/10/11 13:37:35;;;;;;;;;;;14.80;93.30;;;;;;4344912;33;43162;-81
2021/10/11 14:28:58;;;;;;;;;;;15.00;93.10;;;;;;4345298;33;44202;-81
2021/10/11 14:32:03;;;;;;;;;;;15.00;93.10;;;;;;4344395;33;43399;-81
2021/10/11 16:01:24;;;;;;;;;;;15.20;92.70;;;;;;4354988;32;43161;-81
2021/10/11 16:03:51;;;;;;;;;;;15.20;92.70;;;;;;4348005;32;42900;-81
2021/10/11 16:06:25;;;;;;;;;;;15.20;92.70;;;;;;4348154;32;44073;-80
2021/10/11 16:08:52;;;;;;;;;;;15.20;92.70;;;;;;4361400;32;45781;-81
2021/10/11 16:11:20;;;;;;;;;;;15.20;92.60;;;;;;4347905;32;44188;-81
2021/10/11 16:13:47;;;;;;;;;;;15.20;92.60;;;;;;4347829;32;43792;-81
2021/10/11 16:16:16;;;;;;;;;;;15.20;92.60;;;;;;4360833;32;44199;-81
2021/10/11 16:18:47;;;;;;;;;;;15.20;92.50;;;;;;4347481;32;43825;-81
2021/10/11 16:21:17;;;;;;;;;;;15.20;92.50;;;;;;4361234;32;43635;-81
2021/10/11 16:23:47;;;;;;;;;;;15.20;92.40;;;;;;4348439;32;44193;-81
2021/10/11 16:26:15;;;;;;;;;;;15.20;92.40;;;;;;4347711;32;42637;-81
2021/10/11 16:28:44;;;;;;;;;;;15.20;92.30;;;;;;4347637;32;43498;-81
2021/10/11 16:31:13;;;;;;;;;;;15.20;92.30;;;;;;4360894;32;43956;-81
2021/10/11 16:33:46;;;;;;;;;;;15.20;92.30;;;;;;4361012;32;43348;-81
2021/10/11 16:36:13;;;;;;;;;;;15.20;92.30;;;;;;4360697;32;43727;-81
2021/10/11 16:38:41;;;;;;;;;;;15.20;92.30;;;;;;4360529;32;42923;-81
2021/10/11 16:41:15;;;;;;;;;;;15.20;92.30;;;;;;4347732;32;43283;-81
2021/10/11 16:43:47;;;;;;;;;;;15.20;92.30;;;;;;4347133;32;44083;-81
2021/10/11 16:46:15;;;;;;;;;;;15.20;92.20;;;;;;4347526;32;43517;-81
2021/10/11 16:48:44;;;;;;;;;;;15.20;92.20;;;;;;4360476;32;42832;-81
2021/10/11 16:51:13;;;;;;;;;;;15.20;92.20;;;;;;4360590;32;43451;-81
2021/10/11 16:56:29;;;;;;;;;;;15.10;92.10;;;;;;4360857;32;43958;-80
2021/10/11 16:59:03;;;;;;;;;;;15.10;92.10;;;;;;4360667;32;43712;-81
2021/10/11 17:01:37;;;;;;;;;;;15.10;92.10;;;;;;4347076;32;42576;-80